sensor_id;sensor_type;location;lat;lon;timestamp;pressure;altitude;pressure_sealevel;temperature;humidity
54459;BME280;40368;49.350;8.152;2023-03-16T00:00:41;1006.5;;;9.32;49.34
54459;BME280;40368;49.350;8.152;2023-03-16T00:01:41;1006.5;;;9.35;49.67
54459;BME280;40368;49.350;8.152;2023-03-16T00:02:41;1006.5;;;9.34;49.71
54459;BME280;40368;49.350;8.152;2023-03-16T00:03:41;1006.5;;;9.34;49.6
54459;BME280;40368;49.350;8.152;2023-03-16T00:04:41;1006.5;;;9.31;49.37
54459;BME280;40368;49.350;8.152;2023-03-16T00:05:41;1006.5;;;9.31;49.96
54459;BME280;40368;49.350;8.152;2023-03-16T00:06:41;1006.5;;;9.33;49.3
54459;BME280;40368;49.350;8.152;2023-03-16T00:07:41;1006.5;;;9.34;49.93
54459;BME280;40368;49.350;8.152;2023-03-16T00:08:41;1006.5;;;9.34;49.83
54459;BME280;40368;49.350;8.152;2023-03-16T00:09:41;1006.6;;;9.34;49.69
54459;BME280;40368;49.350;8.152;2023-03-16T00:10:41;1006.5;;;9.29;49.43
54459;BME280;40368;49.350;8.152;2023-03-16T00:11:41;1006.6;;;9.28;49.58
54459;BME280;40368;49.350;8.152;2023-03-16T00:12:41;1006.6;;;9.25;49.32
54459;BME280;40368;49.350;8.152;2023-03-16T00:13:41;1006.7;;;9.18;49.7
54459;BME280;40368;49.350;8.152;2023-03-16T00:14:41;1006.6;;;9.2;50.36
54459;BME280;40368;49.350;8.152;2023-03-16T00:15:48;1006.6;;;9.22;49.69
54459;BME280;40368;49.350;8.152;2023-03-16T00:16:41;1006.6;;;9.22;49.52
54459;BME280;40368;49.350;8.152;2023-03-16T00:17:41;1006.6;;;9.2;49.35
54459;BME280;40368;49.350;8.152;2023-03-16T00:18:41;1006.7;;;9.16;50.03
54459;BME280;40368;49.350;8.152;2023-03-16T00:19:41;1006.7;;;9.1;49.58
54459;BME280;40368;49.350;8.152;2023-03-16T00:20:41;1006.7;;;9.09;50.06
54459;BME280;40368;49.350;8.152;2023-03-16T00:21:41;1006.7;;;9.18;50.41
54459;BME280;40368;49.350;8.152;2023-03-16T00:22:41;1006.6;;;9.29;49.36
54459;BME280;40368;49.350;8.152;2023-03-16T00:23:41;1006.7;;;9.34;50.2
54459;BME280;40368;49.350;8.152;2023-03-16T00:24:41;1006.7;;;9.37;49.11
54459;BME280;40368;49.350;8.152;2023-03-16T00:25:41;1006.7;;;9.34;49.63
54459;BME280;40368;49.350;8.152;2023-03-16T00:26:41;1006.7;;;9.33;49.07
54459;BME280;40368;49.350;8.152;2023-03-16T00:27:41;1006.8;;;9.27;49.08
54459;BME280;40368;49.350;8.152;2023-03-16T00:28:41;1006.8;;;9.2;49.32
54459;BME280;40368;49.350;8.152;2023-03-16T00:29:41;1006.7;;;9.12;49.16
54459;BME280;40368;49.350;8.152;2023-03-16T00:30:41;1006.8;;;9.1;49.46
54459;BME280;40368;49.350;8.152;2023-03-16T00:31:41;1006.7;;;9.13;49.4
54459;BME280;40368;49.350;8.152;2023-03-16T00:32:41;1006.7;;;9.17;49.48
54459;BME280;40368;49.350;8.152;2023-03-16T00:33:41;1006.7;;;9.14;49.79
54459;BME280;40368;49.350;8.152;2023-03-16T00:34:41;1006.7;;;9.16;49.48
54459;BME280;40368;49.350;8.152;2023-03-16T00:35:44;1006.7;;;9.13;50
54459;BME280;40368;49.350;8.152;2023-03-16T00:36:41;1006.7;;;9.17;49.47
54459;BME280;40368;49.350;8.152;2023-03-16T00:37:41;1006.7;;;9.16;49.17
54459;BME280;40368;49.350;8.152;2023-03-16T00:38:41;1006.7;;;9.14;49.71
54459;BME280;40368;49.350;8.152;2023-03-16T00:39:41;1006.7;;;9.12;49.08
54459;BME280;40368;49.350;8.152;2023-03-16T00:40:41;1006.7;;;9.07;49.13
54459;BME280;40368;49.350;8.152;2023-03-16T00:41:41;1006.7;;;9.03;49.62
54459;BME280;40368;49.350;8.152;2023-03-16T00:42:41;1006.7;;;9.02;49.97
54459;BME280;40368;49.350;8.152;2023-03-16T00:43:41;1006.7;;;9.01;49.85
54459;BME280;40368;49.350;8.152;2023-03-16T00:44:41;1006.7;;;8.97;49.73
54459;BME280;40368;49.350;8.152;2023-03-16T00:45:41;1006.7;;;8.93;50.17
54459;BME280;40368;49.350;8.152;2023-03-16T00:46:41;1006.7;;;8.91;49.86
54459;BME280;40368;49.350;8.152;2023-03-16T00:47:41;1006.7;;;8.89;50.28
54459;BME280;40368;49.350;8.152;2023-03-16T00:48:41;1006.6;;;8.89;50.06
54459;BME280;40368;49.350;8.152;2023-03-16T00:49:42;1006.6;;;8.85;50.29
54459;BME280;40368;49.350;8.152;2023-03-16T00:50:41;1006.6;;;8.89;50.2
54459;BME280;40368;49.350;8.152;2023-03-16T00:51:41;1006.6;;;8.89;49.94
54459;BME280;40368;49.350;8.152;2023-03-16T00:52:41;1006.6;;;8.88;50.4
54459;BME280;40368;49.350;8.152;2023-03-16T00:53:42;1006.6;;;8.85;50.02
54459;BME280;40368;49.350;8.152;2023-03-16T00:54:41;1006.6;;;8.87;50.27
54459;BME280;40368;49.350;8.152;2023-03-16T00:55:41;1006.5;;;8.85;50.16
54459;BME280;40368;49.350;8.152;2023-03-16T00:56:41;1006.5;;;8.85;50.33
54459;BME280;40368;49.350;8.152;2023-03-16T00:57:41;1006.5;;;8.85;50.27
54459;BME280;40368;49.350;8.152;2023-03-16T00:58:41;1006.5;;;8.91;49.74
54459;BME280;40368;49.350;8.152;2023-03-16T00:59:41;1006.5;;;8.89;49.79
54459;BME280;40368;49.350;8.152;2023-03-16T01:00:41;1006.5;;;8.85;49.84
54459;BME280;40368;49.350;8.152;2023-03-16T01:01:41;1006.5;;;8.8;49.96
54459;BME280;40368;49.350;8.152;2023-03-16T01:02:41;1006.5;;;8.85;50.53
54459;BME280;40368;49.350;8.152;2023-03-16T01:03:41;1006.5;;;8.92;50.05
54459;BME280;40368;49.350;8.152;2023-03-16T01:04:41;1006.5;;;8.89;49.44
54459;BME280;40368;49.350;8.152;2023-03-16T01:05:41;1006.5;;;8.85;49.73
54459;BME280;40368;49.350;8.152;2023-03-16T01:06:41;1006.5;;;8.81;49.63
54459;BME280;40368;49.350;8.152;2023-03-16T01:07:41;1006.5;;;8.76;50.73
54459;BME280;40368;49.350;8.152;2023-03-16T01:08:41;1006.4;;;8.77;49.92
54459;BME280;40368;49.350;8.152;2023-03-16T01:09:41;1006.4;;;8.74;49.73
54459;BME280;40368;49.350;8.152;2023-03-16T01:10:41;1006.5;;;8.72;49.89
54459;BME280;40368;49.350;8.152;2023-03-16T01:11:41;1006.4;;;8.66;50.41
54459;BME280;40368;49.350;8.152;2023-03-16T01:12:41;1006.4;;;8.66;49.99
54459;BME280;40368;49.350;8.152;2023-03-16T01:13:41;1006.4;;;8.62;50.55
54459;BME280;40368;49.350;8.152;2023-03-16T01:14:41;1006.4;;;8.64;50.92
54459;BME280;40368;49.350;8.152;2023-03-16T01:15:41;1006.3;;;8.72;50.35
54459;BME280;40368;49.350;8.152;2023-03-16T01:16:41;1006.3;;;8.78;50.45
54459;BME280;40368;49.350;8.152;2023-03-16T01:17:41;1006.3;;;8.8;50.04
54459;BME280;40368;49.350;8.152;2023-03-16T01:18:41;1006.2;;;8.75;50.08
54459;BME280;40368;49.350;8.152;2023-03-16T01:19:41;1006.2;;;8.79;49.8
54459;BME280;40368;49.350;8.152;2023-03-16T01:20:41;1006.2;;;8.78;50.44
54459;BME280;40368;49.350;8.152;2023-03-16T01:21:41;1006.2;;;8.74;50.04
54459;BME280;40368;49.350;8.152;2023-03-16T01:22:41;1006.2;;;8.68;50.16
54459;BME280;40368;49.350;8.152;2023-03-16T01:26:41;1006.4;;;8.66;50.18
54459;BME280;40368;49.350;8.152;2023-03-16T01:27:41;1006.4;;;8.66;50.58
54459;BME280;40368;49.350;8.152;2023-03-16T01:28:41;1006.4;;;8.68;50.79
54459;BME280;40368;49.350;8.152;2023-03-16T01:29:41;1006.4;;;8.7;49.9
54459;BME280;40368;49.350;8.152;2023-03-16T01:30:42;1006.4;;;8.68;50.34
54459;BME280;40368;49.350;8.152;2023-03-16T01:31:41;1006.4;;;8.68;49.89
54459;BME280;40368;49.350;8.152;2023-03-16T01:32:41;1006.3;;;8.59;50.19
54459;BME280;40368;49.350;8.152;2023-03-16T01:33:41;1006.4;;;8.53;50.23
54459;BME280;40368;49.350;8.152;2023-03-16T01:34:41;1006.4;;;8.53;50.22
54459;BME280;40368;49.350;8.152;2023-03-16T01:35:41;1006.3;;;8.53;50.45
54459;BME280;40368;49.350;8.152;2023-03-16T01:36:41;1006.3;;;8.55;50.44
54459;BME280;40368;49.350;8.152;2023-03-16T01:37:41;1006.3;;;8.53;50.26
54459;BME280;40368;49.350;8.152;2023-03-16T01:38:41;1006.3;;;8.5;50.29
54459;BME280;40368;49.350;8.152;2023-03-16T01:39:41;1006.3;;;8.56;50.75
54459;BME280;40368;49.350;8.152;2023-03-16T01:40:41;1006.3;;;8.6;50.21
54459;BME280;40368;49.350;8.152;2023-03-16T01:41:41;1006.3;;;8.6;50.19
54459;BME280;40368;49.350;8.152;2023-03-16T01:42:45;1006.2;;;8.62;50.86
54459;BME280;40368;49.350;8.152;2023-03-16T01:43:41;1006.2;;;8.62;50.12
54459;BME280;40368;49.350;8.152;2023-03-16T01:44:49;1006.2;;;8.67;50.91
54459;BME280;40368;49.350;8.152;2023-03-16T01:46:41;1006.2;;;8.67;50.04
54459;BME280;40368;49.350;8.152;2023-03-16T01:46:46;1006.2;;;8.68;49.99
54459;BME280;40368;49.350;8.152;2023-03-16T01:47:41;1006.2;;;8.67;50.16
54459;BME280;40368;49.350;8.152;2023-03-16T01:48:42;1006.2;;;8.66;50.11
54459;BME280;40368;49.350;8.152;2023-03-16T01:49:41;1006.2;;;8.66;49.84
54459;BME280;40368;49.350;8.152;2023-03-16T01:50:41;1006.2;;;8.67;49.82
54459;BME280;40368;49.350;8.152;2023-03-16T01:51:42;1006.2;;;8.64;49.83
54459;BME280;40368;49.350;8.152;2023-03-16T01:52:41;1006.2;;;8.62;50.36
54459;BME280;40368;49.350;8.152;2023-03-16T01:53:42;1006.2;;;8.6;49.93
54459;BME280;40368;49.350;8.152;2023-03-16T01:54:41;1006.2;;;8.58;50.6
54459;BME280;40368;49.350;8.152;2023-03-16T01:55:41;1006.2;;;8.56;50.12
54459;BME280;40368;49.350;8.152;2023-03-16T01:56:42;1006.2;;;8.57;50.44
54459;BME280;40368;49.350;8.152;2023-03-16T01:57:42;1006.1;;;8.6;50.1
54459;BME280;40368;49.350;8.152;2023-03-16T01:58:41;1006.1;;;8.64;50.2
54459;BME280;40368;49.350;8.152;2023-03-16T01:59:42;1006.1;;;8.64;50.19
54459;BME280;40368;49.350;8.152;2023-03-16T02:00:41;1006.1;;;8.6;50.27
54459;BME280;40368;49.350;8.152;2023-03-16T02:01:41;1006.1;;;8.58;50.17
54459;BME280;40368;49.350;8.152;2023-03-16T02:02:41;1006.1;;;8.52;49.95
54459;BME280;40368;49.350;8.152;2023-03-16T02:03:41;1006.1;;;8.49;50.47
54459;BME280;40368;49.350;8.152;2023-03-16T02:04:42;1006.2;;;8.5;50.43
54459;BME280;40368;49.350;8.152;2023-03-16T02:05:42;1006.1;;;8.55;50.46
54459;BME280;40368;49.350;8.152;2023-03-16T02:06:42;1006.1;;;8.51;50.19
54459;BME280;40368;49.350;8.152;2023-03-16T02:07:42;1006.1;;;8.47;50.31
54459;BME280;40368;49.350;8.152;2023-03-16T02:08:41;1006.1;;;8.47;50.55
54459;BME280;40368;49.350;8.152;2023-03-16T02:09:42;1006;;;8.51;50.52
54459;BME280;40368;49.350;8.152;2023-03-16T02:10:41;1006.1;;;8.57;50.52
54459;BME280;40368;49.350;8.152;2023-03-16T02:11:41;1006.1;;;8.56;50.34
54459;BME280;40368;49.350;8.152;2023-03-16T02:12:41;1006;;;8.6;50.86
54459;BME280;40368;49.350;8.152;2023-03-16T02:13:41;1006;;;8.64;50.31
54459;BME280;40368;49.350;8.152;2023-03-16T02:14:41;1006;;;8.6;50.05
54459;BME280;40368;49.350;8.152;2023-03-16T02:15:41;1006;;;8.6;50.4
54459;BME280;40368;49.350;8.152;2023-03-16T02:16:41;1006;;;8.57;50.12
54459;BME280;40368;49.350;8.152;2023-03-16T02:17:41;1005.9;;;8.53;50.07
54459;BME280;40368;49.350;8.152;2023-03-16T02:18:41;1005.9;;;8.52;50.39
54459;BME280;40368;49.350;8.152;2023-03-16T02:19:43;1005.8;;;8.55;50.14
54459;BME280;40368;49.350;8.152;2023-03-16T02:20:41;1005.9;;;8.6;50.71
54459;BME280;40368;49.350;8.152;2023-03-16T02:21:43;1005.9;;;8.6;50.06
54459;BME280;40368;49.350;8.152;2023-03-16T02:22:42;1006;;;8.57;49.88
54459;BME280;40368;49.350;8.152;2023-03-16T02:23:41;1005.9;;;8.51;50.52
54459;BME280;40368;49.350;8.152;2023-03-16T02:24:41;1005.9;;;8.53;50.96
54459;BME280;40368;49.350;8.152;2023-03-16T02:25:42;1005.9;;;8.57;50.13
54459;BME280;40368;49.350;8.152;2023-03-16T02:26:42;1005.9;;;8.58;50.25
54459;BME280;40368;49.350;8.152;2023-03-16T02:27:42;1005.9;;;8.53;50.2
54459;BME280;40368;49.350;8.152;2023-03-16T02:28:44;1005.9;;;8.5;50.11
54459;BME280;40368;49.350;8.152;2023-03-16T02:29:48;1005.8;;;8.47;50.49
54459;BME280;40368;49.350;8.152;2023-03-16T02:30:41;1005.8;;;8.47;50.89
54459;BME280;40368;49.350;8.152;2023-03-16T02:31:41;1005.8;;;8.51;50.84
54459;BME280;40368;49.350;8.152;2023-03-16T02:32:41;1005.8;;;8.56;50.08
54459;BME280;40368;49.350;8.152;2023-03-16T02:33:41;1005.8;;;8.56;50.82
54459;BME280;40368;49.350;8.152;2023-03-16T02:34:41;1005.8;;;8.56;50.37
54459;BME280;40368;49.350;8.152;2023-03-16T02:35:41;1005.8;;;8.54;50.34
54459;BME280;40368;49.350;8.152;2023-03-16T02:36:41;1005.7;;;8.5;50
54459;BME280;40368;49.350;8.152;2023-03-16T02:37:41;1005.7;;;8.47;50.46
54459;BME280;40368;49.350;8.152;2023-03-16T02:38:41;1005.7;;;8.5;50.24
54459;BME280;40368;49.350;8.152;2023-03-16T02:39:41;1005.7;;;8.47;50.64
54459;BME280;40368;49.350;8.152;2023-03-16T02:40:41;1005.7;;;8.47;50.38
54459;BME280;40368;49.350;8.152;2023-03-16T02:41:41;1005.6;;;8.47;50.26
54459;BME280;40368;49.350;8.152;2023-03-16T02:42:41;1005.6;;;8.49;50.58
54459;BME280;40368;49.350;8.152;2023-03-16T02:43:42;1005.6;;;8.53;50.08
54459;BME280;40368;49.350;8.152;2023-03-16T02:44:41;1005.6;;;8.51;50.7
54459;BME280;40368;49.350;8.152;2023-03-16T02:45:42;1005.7;;;8.5;50.89
54459;BME280;40368;49.350;8.152;2023-03-16T02:46:41;1005.7;;;8.49;50.16
54459;BME280;40368;49.350;8.152;2023-03-16T02:47:41;1005.7;;;8.46;50.38
54459;BME280;40368;49.350;8.152;2023-03-16T02:48:42;1005.7;;;8.42;50.12
54459;BME280;40368;49.350;8.152;2023-03-16T02:49:42;1005.7;;;8.37;50.42
54459;BME280;40368;49.350;8.152;2023-03-16T02:50:42;1005.7;;;8.38;50.74
54459;BME280;40368;49.350;8.152;2023-03-16T02:51:41;1005.7;;;8.37;50.48
54459;BME280;40368;49.350;8.152;2023-03-16T02:52:41;1005.7;;;8.37;50.57
54459;BME280;40368;49.350;8.152;2023-03-16T02:53:41;1005.6;;;8.34;50.58
54459;BME280;40368;49.350;8.152;2023-03-16T02:54:41;1005.6;;;8.33;51.04
54459;BME280;40368;49.350;8.152;2023-03-16T02:55:41;1005.7;;;8.35;50.84
54459;BME280;40368;49.350;8.152;2023-03-16T02:56:41;1005.6;;;8.39;50.6
54459;BME280;40368;49.350;8.152;2023-03-16T02:57:41;1005.6;;;8.43;50.53
54459;BME280;40368;49.350;8.152;2023-03-16T02:58:41;1005.6;;;8.38;50.42
54459;BME280;40368;49.350;8.152;2023-03-16T02:59:41;1005.6;;;8.37;50.44
54459;BME280;40368;49.350;8.152;2023-03-16T03:00:41;1005.6;;;8.37;50.82
54459;BME280;40368;49.350;8.152;2023-03-16T03:01:41;1005.5;;;8.42;50.44
54459;BME280;40368;49.350;8.152;2023-03-16T03:02:41;1005.5;;;8.45;50.41
54459;BME280;40368;49.350;8.152;2023-03-16T03:03:41;1005.5;;;8.52;50.85
54459;BME280;40368;49.350;8.152;2023-03-16T03:04:41;1005.4;;;8.58;50.27
54459;BME280;40368;49.350;8.152;2023-03-16T03:05:41;1005.4;;;8.64;50.45
54459;BME280;40368;49.350;8.152;2023-03-16T03:06:41;1005.4;;;8.68;50.6
54459;BME280;40368;49.350;8.152;2023-03-16T03:07:41;1005.4;;;8.7;50.7
54459;BME280;40368;49.350;8.152;2023-03-16T03:08:41;1005.5;;;8.71;49.91
54459;BME280;40368;49.350;8.152;2023-03-16T03:09:41;1005.5;;;8.7;50.2
54459;BME280;40368;49.350;8.152;2023-03-16T03:10:41;1005.4;;;8.68;49.87
54459;BME280;40368;49.350;8.152;2023-03-16T03:11:41;1005.4;;;8.66;49.9
54459;BME280;40368;49.350;8.152;2023-03-16T03:12:41;1005.4;;;8.64;50.65
54459;BME280;40368;49.350;8.152;2023-03-16T03:13:41;1005.4;;;8.64;50.18
54459;BME280;40368;49.350;8.152;2023-03-16T03:14:41;1005.4;;;8.67;50.23
54459;BME280;40368;49.350;8.152;2023-03-16T03:15:41;1005.4;;;8.66;50.28
54459;BME280;40368;49.350;8.152;2023-03-16T03:16:41;1005.4;;;8.63;50.15
54459;BME280;40368;49.350;8.152;2023-03-16T03:17:41;1005.4;;;8.58;50.17
54459;BME280;40368;49.350;8.152;2023-03-16T03:18:41;1005.4;;;8.57;50.3
54459;BME280;40368;49.350;8.152;2023-03-16T03:19:41;1005.4;;;8.56;50.44
54459;BME280;40368;49.350;8.152;2023-03-16T03:20:41;1005.4;;;8.59;50.72
54459;BME280;40368;49.350;8.152;2023-03-16T03:21:41;1005.4;;;8.63;50.24
54459;BME280;40368;49.350;8.152;2023-03-16T03:22:41;1005.4;;;8.66;50.08
54459;BME280;40368;49.350;8.152;2023-03-16T03:23:41;1005.3;;;8.64;50.09
54459;BME280;40368;49.350;8.152;2023-03-16T03:25:41;1005.4;;;8.64;50.44
54459;BME280;40368;49.350;8.152;2023-03-16T03:26:41;1005.4;;;8.7;50.22
54459;BME280;40368;49.350;8.152;2023-03-16T03:27:41;1005.4;;;8.72;49.82
54459;BME280;40368;49.350;8.152;2023-03-16T03:28:41;1005.4;;;8.7;50.45
54459;BME280;40368;49.350;8.152;2023-03-16T03:29:41;1005.5;;;8.75;50.42
54459;BME280;40368;49.350;8.152;2023-03-16T03:30:41;1005.5;;;8.78;50.08
54459;BME280;40368;49.350;8.152;2023-03-16T03:31:41;1005.5;;;8.79;49.89
54459;BME280;40368;49.350;8.152;2023-03-16T03:32:41;1005.4;;;8.79;50.25
54459;BME280;40368;49.350;8.152;2023-03-16T03:33:41;1005.5;;;8.81;49.84
54459;BME280;40368;49.350;8.152;2023-03-16T03:34:41;1005.5;;;8.84;49.3
54459;BME280;40368;49.350;8.152;2023-03-16T03:35:41;1005.4;;;8.85;50.01
54459;BME280;40368;49.350;8.152;2023-03-16T03:36:42;1005.5;;;8.88;49.67
54459;BME280;40368;49.350;8.152;2023-03-16T03:37:41;1005.5;;;8.88;49.44
54459;BME280;40368;49.350;8.152;2023-03-16T03:38:41;1005.5;;;8.89;49.39
54459;BME280;40368;49.350;8.152;2023-03-16T03:39:41;1005.5;;;8.91;49.84
54459;BME280;40368;49.350;8.152;2023-03-16T03:40:42;1005.4;;;8.93;49.91
54459;BME280;40368;49.350;8.152;2023-03-16T03:41:41;1005.4;;;8.97;49.42
54459;BME280;40368;49.350;8.152;2023-03-16T03:42:41;1005.4;;;8.99;49.66
54459;BME280;40368;49.350;8.152;2023-03-16T03:43:41;1005.4;;;9.01;49.38
54459;BME280;40368;49.350;8.152;2023-03-16T03:44:41;1005.4;;;8.97;49.31
54459;BME280;40368;49.350;8.152;2023-03-16T03:45:41;1005.4;;;8.97;49.2
54459;BME280;40368;49.350;8.152;2023-03-16T03:46:41;1005.4;;;8.97;49.72
54459;BME280;40368;49.350;8.152;2023-03-16T03:47:41;1005.4;;;8.95;49.63
54459;BME280;40368;49.350;8.152;2023-03-16T03:48:41;1005.4;;;8.93;49.75
54459;BME280;40368;49.350;8.152;2023-03-16T03:49:41;1005.4;;;8.93;49.64
54459;BME280;40368;49.350;8.152;2023-03-16T03:50:41;1005.4;;;8.95;49.71
54459;BME280;40368;49.350;8.152;2023-03-16T03:51:41;1005.3;;;8.95;49.68
54459;BME280;40368;49.350;8.152;2023-03-16T03:52:41;1005.4;;;8.95;49.69
54459;BME280;40368;49.350;8.152;2023-03-16T03:53:41;1005.4;;;8.95;49.29
54459;BME280;40368;49.350;8.152;2023-03-16T03:54:41;1005.3;;;8.91;49.59
54459;BME280;40368;49.350;8.152;2023-03-16T03:55:41;1005.3;;;8.92;49.33
54459;BME280;40368;49.350;8.152;2023-03-16T03:56:41;1005.4;;;8.93;49.65
54459;BME280;40368;49.350;8.152;2023-03-16T03:57:41;1005.4;;;8.92;49.31
54459;BME280;40368;49.350;8.152;2023-03-16T03:58:41;1005.3;;;8.91;49.52
54459;BME280;40368;49.350;8.152;2023-03-16T03:59:41;1005.4;;;8.92;49.64
54459;BME280;40368;49.350;8.152;2023-03-16T04:00:41;1005.3;;;8.92;49.78
54459;BME280;40368;49.350;8.152;2023-03-16T04:01:41;1005.3;;;8.92;49.25
54459;BME280;40368;49.350;8.152;2023-03-16T04:02:41;1005.3;;;8.88;49.45
54459;BME280;40368;49.350;8.152;2023-03-16T04:03:41;1005.3;;;8.87;49.91
54459;BME280;40368;49.350;8.152;2023-03-16T04:04:41;1005.4;;;8.89;49.91
54459;BME280;40368;49.350;8.152;2023-03-16T04:05:41;1005.4;;;8.92;49.83
54459;BME280;40368;49.350;8.152;2023-03-16T04:06:41;1005.4;;;8.93;49.51
54459;BME280;40368;49.350;8.152;2023-03-16T04:07:41;1005.4;;;8.97;49.82
54459;BME280;40368;49.350;8.152;2023-03-16T04:08:41;1005.4;;;9.05;49.59
54459;BME280;40368;49.350;8.152;2023-03-16T04:09:41;1005.4;;;9.1;49.45
54459;BME280;40368;49.350;8.152;2023-03-16T04:10:41;1005.4;;;9.13;49.52
54459;BME280;40368;49.350;8.152;2023-03-16T04:11:41;1005.4;;;9.14;49.24
54459;BME280;40368;49.350;8.152;2023-03-16T04:12:41;1005.4;;;9.16;49.11
54459;BME280;40368;49.350;8.152;2023-03-16T04:13:41;1005.4;;;9.14;48.89
54459;BME280;40368;49.350;8.152;2023-03-16T04:14:41;1005.5;;;9.13;49.04
54459;BME280;40368;49.350;8.152;2023-03-16T04:15:41;1005.5;;;9.12;49.18
54459;BME280;40368;49.350;8.152;2023-03-16T04:16:41;1005.4;;;9.12;49.16
54459;BME280;40368;49.350;8.152;2023-03-16T04:17:41;1005.4;;;9.14;49.1
54459;BME280;40368;49.350;8.152;2023-03-16T04:18:41;1005.4;;;9.14;49.14
54459;BME280;40368;49.350;8.152;2023-03-16T04:19:41;1005.4;;;9.13;49.04
54459;BME280;40368;49.350;8.152;2023-03-16T04:20:41;1005.4;;;9.12;48.59
54459;BME280;40368;49.350;8.152;2023-03-16T04:21:41;1005.4;;;9.1;49.23
54459;BME280;40368;49.350;8.152;2023-03-16T04:22:41;1005.4;;;9.09;48.99
54459;BME280;40368;49.350;8.152;2023-03-16T04:23:41;1005.4;;;9.07;49.09
54459;BME280;40368;49.350;8.152;2023-03-16T04:24:41;1005.4;;;9.05;49.32
54459;BME280;40368;49.350;8.152;2023-03-16T04:25:41;1005.4;;;9.04;49.36
54459;BME280;40368;49.350;8.152;2023-03-16T04:26:41;1005.4;;;9.02;49.36
54459;BME280;40368;49.350;8.152;2023-03-16T04:27:41;1005.3;;;9.04;49.5
54459;BME280;40368;49.350;8.152;2023-03-16T04:28:41;1005.4;;;9.05;49.2
54459;BME280;40368;49.350;8.152;2023-03-16T04:29:41;1005.3;;;9.04;49.53
54459;BME280;40368;49.350;8.152;2023-03-16T04:30:41;1005.3;;;9.01;49.66
54459;BME280;40368;49.350;8.152;2023-03-16T04:31:41;1005.3;;;9.02;49.48
54459;BME280;40368;49.350;8.152;2023-03-16T04:32:41;1005.3;;;9.04;49.53
54459;BME280;40368;49.350;8.152;2023-03-16T04:33:41;1005.3;;;9.07;49.55
54459;BME280;40368;49.350;8.152;2023-03-16T04:34:41;1005.3;;;9.12;49.33
54459;BME280;40368;49.350;8.152;2023-03-16T04:35:41;1005.3;;;9.12;49.46
54459;BME280;40368;49.350;8.152;2023-03-16T04:36:48;1005.3;;;9.1;49.33
54459;BME280;40368;49.350;8.152;2023-03-16T04:37:41;1005.3;;;9.1;49.16
54459;BME280;40368;49.350;8.152;2023-03-16T04:38:42;1005.3;;;9.14;49.36
54459;BME280;40368;49.350;8.152;2023-03-16T04:39:41;1005.3;;;9.18;49.22
54459;BME280;40368;49.350;8.152;2023-03-16T04:40:41;1005.3;;;9.22;48.79
54459;BME280;40368;49.350;8.152;2023-03-16T04:41:41;1005.3;;;9.22;49.04
54459;BME280;40368;49.350;8.152;2023-03-16T04:42:41;1005.4;;;9.22;49.12
54459;BME280;40368;49.350;8.152;2023-03-16T04:43:41;1005.3;;;9.22;48.84
54459;BME280;40368;49.350;8.152;2023-03-16T04:44:41;1005.3;;;9.22;49.21
54459;BME280;40368;49.350;8.152;2023-03-16T04:45:41;1005.2;;;9.21;49.22
54459;BME280;40368;49.350;8.152;2023-03-16T04:46:41;1005.2;;;9.22;49.24
54459;BME280;40368;49.350;8.152;2023-03-16T04:47:41;1005.2;;;9.22;49.03
54459;BME280;40368;49.350;8.152;2023-03-16T04:48:41;1005.3;;;9.26;49.19
54459;BME280;40368;49.350;8.152;2023-03-16T04:49:42;1005.2;;;9.28;48.67
54459;BME280;40368;49.350;8.152;2023-03-16T04:50:41;1005.2;;;9.24;48.47
54459;BME280;40368;49.350;8.152;2023-03-16T04:51:41;1005.2;;;9.22;48.82
54459;BME280;40368;49.350;8.152;2023-03-16T04:52:41;1005.2;;;9.2;48.99
54459;BME280;40368;49.350;8.152;2023-03-16T04:53:41;1005.2;;;9.18;48.96
54459;BME280;40368;49.350;8.152;2023-03-16T04:54:41;1005.2;;;9.16;49.11
54459;BME280;40368;49.350;8.152;2023-03-16T04:55:43;1005.2;;;9.17;49.15
54459;BME280;40368;49.350;8.152;2023-03-16T04:56:41;1005.2;;;9.18;49.25
54459;BME280;40368;49.350;8.152;2023-03-16T04:57:41;1005.2;;;9.16;49.34
54459;BME280;40368;49.350;8.152;2023-03-16T04:58:41;1005.2;;;9.14;49.37
54459;BME280;40368;49.350;8.152;2023-03-16T04:59:41;1005.2;;;9.16;49.44
54459;BME280;40368;49.350;8.152;2023-03-16T05:00:41;1005.2;;;9.16;49.29
54459;BME280;40368;49.350;8.152;2023-03-16T05:01:41;1005.2;;;9.18;49.31
54459;BME280;40368;49.350;8.152;2023-03-16T05:02:41;1005.2;;;9.2;49.05
54459;BME280;40368;49.350;8.152;2023-03-16T05:03:41;1005.2;;;9.2;49.07
54459;BME280;40368;49.350;8.152;2023-03-16T05:04:41;1005.2;;;9.18;49.17
54459;BME280;40368;49.350;8.152;2023-03-16T05:05:41;1005.2;;;9.16;49.24
54459;BME280;40368;49.350;8.152;2023-03-16T05:06:41;1005.2;;;9.17;49.26
54459;BME280;40368;49.350;8.152;2023-03-16T05:07:41;1005.2;;;9.14;49.24
54459;BME280;40368;49.350;8.152;2023-03-16T05:08:42;1005.2;;;9.16;49.27
54459;BME280;40368;49.350;8.152;2023-03-16T05:09:41;1005.2;;;9.18;49.04
54459;BME280;40368;49.350;8.152;2023-03-16T05:10:41;1005.2;;;9.18;49.4
54459;BME280;40368;49.350;8.152;2023-03-16T05:11:41;1005.2;;;9.18;49.34
54459;BME280;40368;49.350;8.152;2023-03-16T05:12:42;1005.1;;;9.2;49.37
54459;BME280;40368;49.350;8.152;2023-03-16T05:13:41;1005.1;;;9.22;49.24
54459;BME280;40368;49.350;8.152;2023-03-16T05:14:41;1005.1;;;9.25;49.28
54459;BME280;40368;49.350;8.152;2023-03-16T05:15:41;1005.1;;;9.29;49.14
54459;BME280;40368;49.350;8.152;2023-03-16T05:16:41;1005.1;;;9.3;49.04
54459;BME280;40368;49.350;8.152;2023-03-16T05:17:41;1005;;;9.29;48.92
54459;BME280;40368;49.350;8.152;2023-03-16T05:18:41;1005;;;9.26;48.75
54459;BME280;40368;49.350;8.152;2023-03-16T05:19:41;1005;;;9.24;49.08
54459;BME280;40368;49.350;8.152;2023-03-16T05:20:41;1005;;;9.21;49.13
54459;BME280;40368;49.350;8.152;2023-03-16T05:21:41;1005;;;9.21;49.31
54459;BME280;40368;49.350;8.152;2023-03-16T05:22:42;1005;;;9.2;49.05
54459;BME280;40368;49.350;8.152;2023-03-16T05:23:41;1005;;;9.18;49.2
54459;BME280;40368;49.350;8.152;2023-03-16T05:24:41;1005.1;;;9.2;49.27
54459;BME280;40368;49.350;8.152;2023-03-16T05:25:41;1005;;;9.2;48.98
54459;BME280;40368;49.350;8.152;2023-03-16T05:26:41;1005.1;;;9.22;49.23
54459;BME280;40368;49.350;8.152;2023-03-16T05:27:41;1005;;;9.22;49.11
54459;BME280;40368;49.350;8.152;2023-03-16T05:28:41;1005.1;;;9.22;49.06
54459;BME280;40368;49.350;8.152;2023-03-16T05:29:41;1005;;;9.22;49.06
54459;BME280;40368;49.350;8.152;2023-03-16T05:30:41;1005;;;9.22;48.87
54459;BME280;40368;49.350;8.152;2023-03-16T05:31:41;1005;;;9.22;49.08
54459;BME280;40368;49.350;8.152;2023-03-16T05:32:41;1005;;;9.21;49.12
54459;BME280;40368;49.350;8.152;2023-03-16T05:33:41;1005;;;9.18;49.17
54459;BME280;40368;49.350;8.152;2023-03-16T05:34:41;1005;;;9.2;49.04
54459;BME280;40368;49.350;8.152;2023-03-16T05:35:41;1005;;;9.18;48.97
54459;BME280;40368;49.350;8.152;2023-03-16T05:36:35;1005;;;9.16;49.16